createdAt,value
2023-05-19T00:00:58.319Z,4.97
2023-05-19T00:05:03.035Z,5.60
2023-05-19T00:09:08.208Z,5.70
2023-05-19T00:13:14.059Z,5.60
2023-05-19T00:17:18.149Z,5.77
2023-05-19T00:21:21.999Z,5.90
2023-05-19T00:25:26.013Z,5.00
2023-05-19T00:29:30.871Z,6.13
2023-05-19T00:33:35.093Z,5.67
2023-05-19T00:37:38.545Z,5.07
2023-05-19T00:41:42.351Z,5.17
2023-05-19T00:45:47.727Z,4.83
2023-05-19T00:49:51.267Z,4.97
2023-05-19T00:53:56.844Z,4.40
2023-05-19T00:58:00.481Z,5.80
2023-05-19T01:02:05.908Z,5.23
2023-05-19T01:06:09.540Z,4.93
2023-05-19T01:10:13.381Z,5.40
2023-05-19T01:14:17.348Z,5.00
2023-05-19T01:18:30.760Z,5.37
2023-05-19T01:22:48.386Z,5.07
2023-05-19T01:27:15.121Z,4.80
2023-05-19T01:31:24.887Z,4.37
2023-05-19T01:35:29.274Z,5.63
2023-05-19T01:39:35.120Z,5.43
2023-05-19T01:43:39.901Z,5.30
2023-05-19T01:47:48.177Z,5.33
2023-05-19T01:51:51.983Z,5.30
2023-05-19T01:55:57.654Z,5.03
2023-05-19T02:00:11.876Z,5.83
2023-05-19T02:04:33.365Z,6.03
2023-05-19T02:08:44.831Z,6.30
2023-05-19T02:12:50.613Z,5.60
2023-05-19T02:16:58.661Z,5.70
2023-05-19T02:21:03.800Z,5.53
2023-05-19T02:25:08.139Z,6.57
2023-05-19T02:29:11.720Z,6.17
2023-05-19T02:33:15.479Z,6.07
2023-05-19T02:37:23.956Z,5.73
2023-05-19T02:41:27.727Z,5.13
2023-05-19T02:45:31.248Z,5.53
2023-05-19T02:49:36.262Z,5.80
2023-05-19T02:53:47.409Z,6.13
2023-05-19T02:57:50.812Z,5.00
2023-05-19T03:01:57.609Z,6.67
2023-05-19T03:06:02.032Z,6.33
2023-05-19T03:10:08.972Z,6.33
2023-05-19T03:14:13.755Z,5.90
2023-05-19T03:18:19.443Z,5.77
2023-05-19T03:22:24.240Z,5.93
2023-05-19T03:26:31.382Z,5.67
2023-05-19T03:30:35.033Z,5.37
2023-05-19T03:34:44.853Z,5.10
2023-05-19T03:38:49.050Z,6.47
2023-05-19T03:42:54.631Z,5.20
2023-05-19T03:46:58.348Z,4.90
2023-05-19T03:51:36.805Z,5.30
2023-05-19T03:55:56.858Z,5.70
2023-05-19T04:00:11.370Z,5.97
2023-05-19T04:04:17.744Z,6.03
2023-05-19T04:08:22.432Z,6.53
2023-05-19T04:12:25.974Z,5.83
2023-05-19T04:16:32.171Z,5.50
2023-05-19T04:20:35.693Z,5.73
2023-05-19T04:24:40.134Z,5.00
2023-05-19T04:28:44.819Z,5.17
2023-05-19T04:32:52.187Z,5.43
2023-05-19T04:36:55.882Z,5.07
2023-05-19T04:41:01.853Z,4.40
2023-05-19T04:45:08.912Z,4.40
2023-05-19T04:49:19.621Z,4.57
2023-05-19T04:53:23.305Z,4.70
2023-05-19T04:57:26.918Z,3.83
2023-05-19T05:01:31.479Z,4.20
2023-05-19T05:05:37.096Z,5.27
2023-05-19T05:09:40.678Z,4.10
2023-05-19T05:13:45.136Z,4.60
2023-05-19T05:17:49.509Z,4.63
2023-05-19T05:21:55.775Z,3.83
2023-05-19T05:26:00.146Z,3.33
2023-05-19T05:30:05.246Z,3.57
2023-05-19T05:34:09.063Z,3.87
2023-05-19T05:38:16.342Z,4.60
2023-05-19T05:42:20.699Z,3.90
2023-05-19T05:46:26.201Z,4.33
2023-05-19T05:50:30.610Z,4.27
2023-05-19T05:54:37.371Z,4.03
2023-05-19T05:58:41.230Z,5.10
2023-05-19T06:02:48.571Z,5.57
2023-05-19T06:06:55.130Z,4.37
2023-05-19T06:11:08.284Z,4.93
2023-05-19T06:15:12.812Z,4.97
2023-05-19T06:19:16.846Z,4.57
2023-05-19T06:23:21.045Z,4.87
2023-05-19T06:27:27.282Z,4.70
2023-05-19T06:31:31.546Z,4.70
2023-05-19T06:35:42.293Z,5.00
2023-05-19T06:39:48.231Z,4.63
2023-05-19T06:43:53.321Z,5.00
2023-05-19T06:47:59.640Z,4.63
2023-05-19T06:52:03.574Z,4.80
2023-05-19T06:56:08.206Z,5.20
2023-05-19T07:00:20.606Z,4.13
2023-05-19T07:04:27.538Z,4.53
2023-05-19T07:08:33.015Z,5.17
2023-05-19T07:12:39.127Z,6.03
2023-05-19T07:16:45.111Z,4.57
2023-05-19T07:20:48.801Z,4.80
2023-05-19T07:24:52.852Z,4.33
2023-05-19T07:28:56.981Z,4.00
2023-05-19T07:33:03.374Z,5.10
2023-05-19T07:37:07.181Z,4.53
2023-05-19T07:41:13.202Z,4.37
2023-05-19T07:45:18.184Z,3.03
2023-05-19T07:49:25.121Z,4.13
2023-05-19T07:53:31.246Z,3.83
2023-05-19T07:57:34.972Z,3.73
2023-05-19T08:01:38.555Z,5.00
2023-05-19T08:05:43.459Z,4.30
2023-05-19T08:09:48.057Z,3.57
2023-05-19T08:13:51.878Z,3.93
2023-05-19T08:17:55.573Z,4.30
2023-05-19T08:22:01.409Z,3.83
2023-05-19T08:26:05.122Z,3.90
2023-05-19T08:30:09.881Z,3.37
2023-05-19T08:34:13.449Z,3.40
2023-05-19T08:38:18.554Z,3.97
2023-05-19T08:42:22.235Z,3.50
2023-05-19T08:46:27.052Z,3.90
2023-05-19T08:50:33.598Z,3.53
2023-05-19T08:54:45.374Z,3.80
2023-05-19T08:58:51.030Z,3.80
2023-05-19T09:03:00.734Z,3.70
2023-05-19T09:07:11.000Z,3.77
2023-05-19T09:11:16.401Z,3.30
2023-05-19T09:15:20.377Z,3.77
2023-05-19T09:19:24.171Z,3.83
2023-05-19T09:23:29.579Z,4.43
2023-05-19T09:27:35.512Z,5.07
2023-05-19T09:31:39.076Z,4.63
2023-05-19T09:35:48.413Z,4.87
2023-05-19T09:39:53.079Z,4.67
2023-05-19T09:43:58.159Z,4.67
2023-05-19T09:48:05.841Z,5.10
2023-05-19T09:52:10.501Z,5.00
2023-05-19T09:56:16.467Z,6.00
2023-05-19T10:00:22.268Z,6.10
2023-05-19T10:04:27.200Z,5.73
2023-05-19T10:08:31.993Z,5.37
2023-05-19T10:12:35.966Z,6.00
2023-05-19T10:16:41.806Z,6.50
2023-05-19T10:20:45.716Z,5.83
2023-05-19T10:24:49.150Z,6.63
2023-05-19T10:28:53.097Z,5.57
2023-05-19T10:32:58.748Z,6.70
2023-05-19T10:37:15.424Z,6.83
2023-05-19T10:41:28.138Z,6.90
2023-05-19T10:45:35.039Z,6.10
2023-05-19T10:49:41.571Z,6.80
2023-05-19T10:53:51.870Z,6.43
2023-05-19T10:57:58.149Z,7.37
2023-05-19T11:02:05.529Z,7.53
2023-05-19T11:06:27.543Z,6.90
2023-05-19T11:10:31.154Z,7.40
2023-05-19T11:14:36.126Z,7.50
2023-05-19T11:18:39.859Z,7.50
2023-05-19T11:23:03.052Z,7.60
2023-05-19T11:27:26.220Z,7.70
2023-05-19T11:31:31.582Z,8.03
2023-05-19T11:35:36.519Z,8.23
2023-05-19T11:39:42.611Z,8.10
2023-05-19T11:43:48.571Z,8.20
2023-05-19T11:52:05.028Z,8.13
2023-05-19T11:56:11.155Z,7.80
2023-05-19T12:00:15.574Z,7.63
2023-05-19T12:04:20.979Z,8.30
2023-05-19T12:08:24.499Z,8.17
2023-05-19T12:12:31.316Z,7.37
2023-05-19T12:16:35.694Z,8.37
2023-05-19T12:20:39.410Z,7.50
2023-05-19T12:24:44.978Z,7.83
2023-05-19T12:28:52.839Z,6.17
2023-05-19T12:32:57.095Z,7.00
2023-05-19T12:37:03.355Z,7.20
2023-05-19T12:41:07.746Z,7.70
2023-05-19T12:45:13.111Z,5.80
2023-05-19T12:49:17.229Z,7.13
2023-05-19T12:53:20.902Z,6.70
2023-05-19T12:57:24.660Z,6.53
2023-05-19T13:01:31.586Z,6.27
2023-05-19T13:05:36.985Z,6.70
2023-05-19T13:09:40.460Z,7.63
2023-05-19T13:13:44.103Z,7.87
2023-05-19T13:17:49.007Z,7.53
2023-05-19T13:21:52.547Z,8.10
2023-05-19T13:25:56.356Z,7.80
2023-05-19T13:30:00.019Z,7.13
2023-05-19T13:34:06.553Z,7.93
2023-05-19T13:38:11.386Z,8.13
2023-05-19T13:42:14.810Z,7.63
2023-05-19T13:46:20.566Z,7.87
2023-05-19T13:50:27.382Z,7.60
2023-05-19T13:54:30.886Z,7.80
2023-05-19T13:58:35.030Z,7.60
2023-05-19T14:02:39.512Z,9.07
2023-05-19T14:06:44.964Z,8.23
2023-05-19T14:10:48.545Z,8.13
2023-05-19T14:14:52.313Z,7.17
2023-05-19T14:18:55.890Z,8.40
2023-05-19T14:23:00.767Z,8.30
2023-05-19T14:27:04.306Z,7.53
2023-05-19T14:31:08.246Z,7.40
2023-05-19T14:35:12.060Z,8.40
2023-05-19T14:39:17.267Z,9.30
2023-05-19T14:43:20.876Z,8.07
2023-05-19T14:47:26.196Z,8.47
2023-05-19T14:51:31.774Z,7.70
2023-05-19T14:55:36.847Z,9.20
2023-05-19T14:59:40.855Z,8.50
2023-05-19T15:03:44.319Z,8.03
2023-05-19T15:07:48.199Z,8.10
2023-05-19T15:11:53.167Z,8.30
2023-05-19T15:16:08.389Z,7.50
2023-05-19T15:20:19.928Z,7.97
2023-05-19T15:24:23.421Z,7.40
2023-05-19T15:28:30.416Z,7.80
2023-05-19T15:32:34.320Z,8.30
2023-05-19T15:36:40.042Z,7.77
2023-05-19T15:40:43.952Z,7.70
2023-05-19T15:44:49.106Z,6.93
2023-05-19T15:48:52.880Z,8.00
2023-05-19T15:52:56.360Z,7.80
2023-05-19T15:57:00.041Z,7.93
2023-05-19T16:01:05.228Z,8.97
2023-05-19T16:05:09.644Z,7.90
2023-05-19T16:09:13.172Z,8.63
2023-05-19T16:13:16.815Z,10.17
2023-05-19T16:17:21.855Z,8.47
2023-05-19T16:21:25.539Z,8.97
2023-05-19T16:25:29.094Z,9.60
2023-05-19T16:29:32.665Z,9.57
2023-05-19T16:33:38.262Z,8.87
2023-05-19T16:37:56.911Z,9.63
2023-05-19T16:42:06.370Z,9.77
2023-05-19T16:46:21.353Z,10.33
2023-05-19T16:50:41.754Z,11.03
2023-05-19T16:54:49.287Z,8.97
2023-05-19T16:59:06.870Z,9.07
2023-05-19T17:03:15.847Z,9.67
2023-05-19T17:07:39.047Z,8.23
2023-05-19T17:11:52.512Z,9.03
2023-05-19T17:16:03.898Z,9.07
2023-05-19T17:20:13.525Z,9.97
2023-05-19T17:24:20.499Z,10.17
2023-05-19T17:28:40.746Z,10.17
2023-05-19T17:33:01.562Z,10.60
2023-05-19T17:37:12.073Z,18.50
2023-05-19T17:41:20.322Z,11.33
2023-05-19T17:45:31.411Z,10.20
2023-05-19T17:49:39.772Z,10.27
2023-05-19T17:53:48.763Z,10.30
2023-05-19T17:58:03.748Z,10.10
2023-05-19T18:02:13.483Z,11.20
2023-05-19T18:06:24.151Z,9.60
2023-05-19T18:10:30.279Z,9.60
2023-05-19T18:14:38.896Z,9.93
2023-05-19T18:18:53.162Z,10.57
2023-05-19T18:22:59.751Z,11.87
2023-05-19T18:27:09.030Z,12.13
2023-05-19T18:31:22.123Z,11.93
2023-05-19T18:35:27.855Z,12.07
2023-05-19T18:39:39.073Z,12.10
2023-05-19T18:43:43.093Z,13.10
2023-05-19T18:47:49.339Z,12.90
2023-05-19T18:51:53.319Z,13.77
2023-05-19T18:55:57.116Z,13.23
2023-05-19T19:00:00.940Z,13.67
2023-05-19T19:04:06.164Z,13.83
2023-05-19T19:08:17.508Z,14.23
2023-05-19T19:12:29.642Z,12.23
2023-05-19T19:16:47.808Z,13.93
2023-05-19T19:20:55.443Z,13.73
2023-05-19T19:24:59.319Z,15.03
2023-05-19T19:29:03.153Z,15.57
2023-05-19T19:33:07.911Z,16.07
2023-05-19T19:37:14.524Z,15.73
2023-05-19T19:41:21.250Z,18.77
2023-05-19T19:45:24.823Z,19.53
2023-05-19T19:49:28.290Z,22.20
2023-05-19T19:53:33.619Z,20.40
2023-05-19T19:57:37.043Z,21.80
2023-05-19T20:01:41.380Z,21.37
2023-05-19T20:05:45.262Z,22.67
2023-05-19T20:09:51.784Z,21.30
2023-05-19T20:13:56.799Z,22.87
2023-05-19T20:18:02.428Z,23.17
2023-05-19T20:22:07.837Z,24.27
2023-05-19T20:26:13.748Z,24.53
2023-05-19T20:30:17.329Z,23.20
2023-05-19T20:34:21.009Z,24.37
2023-05-19T20:38:24.521Z,23.60
2023-05-19T20:42:29.692Z,24.63
2023-05-19T20:46:33.353Z,26.00
2023-05-19T20:50:36.982Z,26.17
2023-05-19T20:54:41.731Z,26.67
2023-05-19T20:58:46.757Z,26.63
2023-05-19T21:02:50.586Z,25.90
2023-05-19T21:06:54.191Z,26.37
2023-05-19T21:10:58.145Z,27.67
2023-05-19T21:15:03.855Z,29.13
2023-05-19T21:19:07.875Z,28.50
2023-05-19T21:23:11.328Z,28.50
2023-05-19T21:27:15.039Z,29.07
2023-05-19T21:31:19.989Z,30.77
2023-05-19T21:35:23.760Z,29.17
2023-05-19T21:39:27.193Z,35.30
2023-05-19T21:43:30.734Z,32.10
2023-05-19T21:47:35.899Z,32.57
2023-05-19T21:51:39.395Z,34.93
2023-05-19T21:55:42.802Z,33.80
2023-05-19T21:59:46.219Z,37.03
2023-05-19T22:03:51.250Z,35.07
2023-05-19T22:07:54.712Z,37.37
2023-05-19T22:11:58.513Z,40.17
2023-05-19T22:16:04.593Z,42.20
2023-05-19T22:20:12.373Z,49.23
2023-05-19T22:24:16.281Z,52.83
2023-05-19T22:28:19.979Z,50.80
2023-05-19T22:32:23.539Z,62.77
2023-05-19T22:36:29.490Z,75.20
2023-05-19T22:40:33.276Z,75.43
2023-05-19T22:44:36.987Z,84.50
2023-05-19T22:48:40.578Z,84.97
2023-05-19T22:52:45.428Z,74.97
2023-05-19T22:56:49.104Z,82.37
2023-05-19T23:00:52.653Z,86.10
2023-05-19T23:04:56.153Z,91.67
2023-05-19T23:09:03.309Z,91.50
2023-05-19T23:13:06.774Z,85.50
2023-05-19T23:17:10.278Z,105.67
2023-05-19T23:21:13.686Z,105.63
2023-05-19T23:25:20.648Z,94.77
2023-05-19T23:29:24.175Z,96.27
2023-05-19T23:33:28.726Z,104.83
2023-05-19T23:37:32.176Z,83.80
2023-05-19T23:41:37.310Z,96.40
2023-05-19T23:45:41.130Z,93.27
2023-05-19T23:49:44.863Z,111.70
2023-05-19T23:53:48.472Z,103.00
2023-05-19T23:57:53.398Z,93.80
